Time;durP1;ratioP1;P1;durP2;ratioP2;P2;SDS_P1;SDS_P2;PMS_P1;PMS_P2;Temp;Humidity;BMP_temperature;BMP_pressure;BME280_temperature;BME280_humidity;BME280_pressure;Samples;Min_cycle;Max_cycle;Signal;HPM_P1;HPM_P2
2021/08/23 00:00:42;;;;;;;12.27;11.20;;;20.00;99.90;;;;;;5051242;28;20988;-61
2021/08/23 00:03:10;;;;;;;15.73;14.33;;;20.00;99.90;;;;;;5052089;28;20540;-62
2021/08/23 00:05:36;;;;;;;15.20;13.90;;;20.00;99.90;;;;;;5051846;28;20471;-61
2021/08/23 00:08:03;;;;;;;14.27;13.10;;;20.00;99.90;;;;;;5051618;28;21293;-62
2021/08/23 00:10:30;;;;;;;14.73;13.53;;;20.00;99.90;;;;;;5050786;28;20529;-61
2021/08/23 00:12:56;;;;;;;14.97;13.67;;;20.00;99.90;;;;;;5042457;28;20467;-61
2021/08/23 00:15:23;;;;;;;15.93;14.53;;;20.00;99.90;;;;;;5051990;28;20979;-62
2021/08/23 00:17:50;;;;;;;14.47;13.27;;;20.00;99.90;;;;;;5054784;28;20505;-61
2021/08/23 00:20:21;;;;;;;15.17;13.57;;;20.00;99.90;;;;;;5055282;28;20463;-61
2021/08/23 00:22:48;;;;;;;14.50;13.40;;;19.90;99.90;;;;;;5054782;28;20431;-62
2021/08/23 00:25:15;;;;;;;16.87;15.47;;;19.90;99.90;;;;;;5043976;28;20232;-61
2021/08/23 00:27:42;;;;;;;14.47;13.10;;;19.90;99.90;;;;;;5054998;28;20542;-61
2021/08/23 00:30:10;;;;;;;14.70;13.30;;;19.90;99.90;;;;;;5052582;28;20533;-63
2021/08/23 00:32:36;;;;;;;16.53;15.07;;;20.00;99.90;;;;;;5047283;28;20533;-62
2021/08/23 00:35:04;;;;;;;13.73;12.67;;;19.90;99.90;;;;;;5054613;28;20908;-62
2021/08/23 00:37:32;;;;;;;16.13;14.83;;;20.00;99.90;;;;;;5055109;28;20463;-62
2021/08/23 00:39:58;;;;;;;16.77;15.47;;;19.90;99.90;;;;;;5054363;28;20549;-62
2021/08/23 00:42:25;;;;;;;13.73;12.67;;;19.90;99.90;;;;;;5054738;28;20472;-62
2021/08/23 00:44:52;;;;;;;13.80;12.60;;;19.90;99.90;;;;;;5054338;28;20475;-62
2021/08/23 00:47:18;;;;;;;16.50;15.00;;;19.90;99.90;;;;;;5054891;28;20957;-62
2021/08/23 00:49:45;;;;;;;13.87;12.77;;;19.90;99.90;;;;;;5054382;28;20467;-62
2021/08/23 00:52:12;;;;;;;14.00;12.90;;;19.90;99.90;;;;;;5054750;28;20525;-62
2021/08/23 00:54:40;;;;;;;13.27;12.17;;;19.90;99.90;;;;;;5054668;28;20471;-62
2021/08/23 00:57:07;;;;;;;16.80;15.32;;;19.90;99.90;;;;;;5054594;28;21172;-62
2021/08/23 00:59:37;;;;;;;17.20;15.70;;;19.90;99.90;;;;;;5054207;28;20229;-62
2021/08/23 01:02:11;;;;;;;15.13;13.73;;;20.00;99.90;;;;;;5046190;28;20517;-63
2021/08/23 01:04:44;;;;;;;14.73;13.43;;;20.00;99.90;;;;;;5054589;28;20509;-63
2021/08/23 01:07:14;;;;;;;16.13;14.77;;;20.00;99.90;;;;;;5053850;28;20459;-63
2021/08/23 01:09:48;;;;;;;15.20;13.90;;;19.90;99.90;;;;;;5054208;28;21240;-63
2021/08/23 01:12:15;;;;;;;15.23;13.93;;;19.90;99.90;;;;;;5053994;28;20529;-62
2021/08/23 01:14:42;;;;;;;15.40;14.03;;;19.90;99.90;;;;;;5054417;28;20664;-62
2021/08/23 01:17:09;;;;;;;14.30;13.00;;;19.90;99.90;;;;;;5053550;28;20467;-62
2021/08/23 01:19:40;;;;;;;18.00;16.50;;;19.90;99.90;;;;;;5054274;28;20475;-62
2021/08/23 01:22:07;;;;;;;18.63;16.90;;;19.90;99.90;;;;;;5053800;28;20499;-62
2021/08/23 01:24:37;;;;;;;16.67;15.20;;;19.90;99.90;;;;;;5043549;28;20517;-62
2021/08/23 01:27:09;;;;;;;18.40;16.90;;;19.90;99.90;;;;;;5052784;28;20505;-62
2021/08/23 01:29:43;;;;;;;20.10;18.20;;;19.90;99.90;;;;;;5053879;28;20471;-62
2021/08/23 01:32:16;;;;;;;27.47;24.80;;;19.80;99.90;;;;;;5042296;28;20945;-62
2021/08/23 01:34:44;;;;;;;19.00;17.10;;;19.80;99.90;;;;;;5046809;28;20483;-62
2021/08/23 01:37:12;;;;;;;15.40;13.97;;;19.80;99.90;;;;;;5053401;28;20848;-63
2021/08/23 01:39:40;;;;;;;13.53;12.30;;;19.80;99.90;;;;;;5053693;28;20517;-62
2021/08/23 01:42:07;;;;;;;13.37;12.13;;;19.80;99.90;;;;;;5053308;28;20571;-62
2021/08/23 01:44:34;;;;;;;13.80;12.60;;;19.80;99.90;;;;;;5052785;28;20467;-62
2021/08/23 01:47:00;;;;;;;14.30;13.00;;;19.80;99.90;;;;;;5052933;28;20840;-62
2021/08/23 01:49:29;;;;;;;14.53;13.27;;;19.80;99.90;;;;;;5053373;28;20468;-63
2021/08/23 01:51:56;;;;;;;14.83;13.53;;;19.80;99.90;;;;;;5053265;28;20524;-62
2021/08/23 01:54:22;;;;;;;14.50;13.13;;;19.80;99.90;;;;;;5053574;28;20528;-62
2021/08/23 01:56:49;;;;;;;13.90;12.70;;;19.80;99.90;;;;;;5053661;28;20468;-63
2021/08/23 01:59:16;;;;;;;15.50;14.10;;;19.80;99.90;;;;;;5052758;28;20463;-62
2021/08/23 02:01:43;;;;;;;15.83;14.27;;;19.80;99.90;;;;;;5053276;28;20529;-62
2021/08/23 02:04:09;;;;;;;13.93;12.63;;;19.80;99.90;;;;;;5052883;28;20505;-62
2021/08/23 02:06:38;;;;;;;14.73;13.53;;;19.80;99.90;;;;;;5053530;28;20525;-62
2021/08/23 02:09:04;;;;;;;15.40;14.03;;;19.80;99.90;;;;;;5052659;28;20557;-62
2021/08/23 02:11:31;;;;;;;16.50;15.10;;;19.70;99.90;;;;;;5053256;28;20518;-62
2021/08/23 02:13:58;;;;;;;14.40;13.10;;;19.70;99.90;;;;;;5052817;28;20533;-62
2021/08/23 02:16:24;;;;;;;14.50;13.30;;;19.70;99.90;;;;;;5052341;28;20533;-62
2021/08/23 02:18:51;;;;;;;13.33;12.23;;;19.70;99.90;;;;;;5053013;28;20471;-62
2021/08/23 02:21:19;;;;;;;12.70;11.67;;;19.70;99.90;;;;;;5052276;28;20471;-62
2021/08/23 02:23:48;;;;;;;11.43;10.60;;;19.60;99.90;;;;;;5049031;28;20469;-62
2021/08/23 02:26:14;;;;;;;13.40;12.40;;;19.60;99.90;;;;;;5045387;28;20505;-62
2021/08/23 02:28:41;;;;;;;11.40;10.50;;;19.60;99.90;;;;;;5052813;28;20475;-62
2021/08/23 02:31:07;;;;;;;11.10;10.30;;;19.60;99.90;;;;;;5052208;28;20467;-62
2021/08/23 02:33:34;;;;;;;11.27;10.37;;;19.60;99.90;;;;;;5045888;28;20463;-62
2021/08/23 02:36:01;;;;;;;10.43;9.53;;;19.60;99.90;;;;;;5046105;28;20479;-62
2021/08/23 02:38:27;;;;;;;10.10;9.30;;;19.60;99.90;;;;;;5052107;28;20466;-62
2021/08/23 02:40:55;;;;;;;10.07;9.27;;;19.60;99.90;;;;;;5052677;28;20813;-62
2021/08/23 02:43:22;;;;;;;9.40;8.57;;;19.60;99.90;;;;;;5052446;28;21272;-62
2021/08/23 02:45:48;;;;;;;8.07;7.47;;;19.60;99.90;;;;;;5052409;28;20960;-62
2021/08/23 02:48:15;;;;;;;6.57;6.13;;;19.60;99.90;;;;;;5052307;28;20475;-62
2021/08/23 02:50:42;;;;;;;5.40;4.93;;;19.60;99.90;;;;;;5052529;28;20493;-62
2021/08/23 02:53:08;;;;;;;4.50;4.23;;;19.50;99.90;;;;;;5052134;28;20468;-62
2021/08/23 02:55:35;;;;;;;5.20;4.80;;;19.50;99.90;;;;;;5052612;28;20463;-62
2021/08/23 02:58:03;;;;;;;6.20;5.70;;;19.50;99.90;;;;;;5052129;28;20466;-62
2021/08/23 03:00:30;;;;;;;4.07;3.87;;;19.40;99.90;;;;;;5052409;28;20525;-62
2021/08/23 03:02:56;;;;;;;4.30;4.10;;;19.40;99.90;;;;;;5048779;28;20476;-62
2021/08/23 03:05:23;;;;;;;4.93;4.63;;;19.40;99.90;;;;;;5051870;28;20463;-62
2021/08/23 03:07:49;;;;;;;4.10;3.80;;;19.40;99.90;;;;;;5052424;28;20961;-63
2021/08/23 03:10:16;;;;;;;5.47;5.07;;;19.30;99.90;;;;;;5052124;28;20816;-63
2021/08/23 03:12:42;;;;;;;5.37;5.00;;;19.30;99.90;;;;;;5052531;28;20711;-63
2021/08/23 03:15:11;;;;;;;4.77;4.47;;;19.30;99.90;;;;;;5051931;28;20471;-62
2021/08/23 03:17:38;;;;;;;4.57;4.27;;;19.30;99.90;;;;;;5052723;28;20479;-62
2021/08/23 03:20:05;;;;;;;5.37;4.97;;;19.30;99.90;;;;;;5051828;28;20475;-62
2021/08/23 03:22:32;;;;;;;5.43;5.13;;;19.30;99.90;;;;;;5032852;28;20838;-62
2021/08/23 03:24:59;;;;;;;7.20;6.70;;;19.30;99.90;;;;;;5031358;28;20969;-62
2021/08/23 03:27:25;;;;;;;6.70;6.20;;;19.30;99.90;;;;;;5032127;28;20521;-62
2021/08/23 03:29:53;;;;;;;7.10;6.60;;;19.30;99.90;;;;;;5032324;28;20850;-62
2021/08/23 03:32:22;;;;;;;7.83;7.03;;;19.20;99.90;;;;;;5031945;28;20522;-62
2021/08/23 03:34:49;;;;;;;7.50;7.00;;;19.10;99.90;;;;;;5031457;28;20475;-62
2021/08/23 03:37:15;;;;;;;8.53;7.93;;;19.10;99.90;;;;;;5030332;28;20533;-62
2021/08/23 03:39:42;;;;;;;9.50;8.80;;;19.00;99.90;;;;;;5030646;28;21016;-62
2021/08/23 03:42:09;;;;;;;8.50;7.80;;;19.00;99.90;;;;;;5030204;28;20562;-62
2021/08/23 03:44:35;;;;;;;8.30;7.70;;;19.00;99.90;;;;;;5043766;28;20471;-62
2021/08/23 03:47:02;;;;;;;9.17;8.47;;;18.90;99.90;;;;;;5050190;28;20495;-62
2021/08/23 03:49:30;;;;;;;10.50;9.60;;;18.90;99.90;;;;;;5051587;28;20540;-62
2021/08/23 03:51:57;;;;;;;9.27;8.57;;;18.90;99.90;;;;;;5056292;28;20513;-62
2021/08/23 03:54:23;;;;;;;10.33;9.30;;;18.80;99.90;;;;;;5055647;28;20471;-62
2021/08/23 03:56:50;;;;;;;10.57;9.77;;;18.80;99.90;;;;;;5056059;28;20859;-62
2021/08/23 03:59:16;;;;;;;8.93;8.33;;;18.80;99.90;;;;;;5055480;28;20478;-62
2021/08/23 04:01:43;;;;;;;11.13;10.33;;;18.80;99.90;;;;;;5055942;28;20530;-62
2021/08/23 04:04:10;;;;;;;9.23;8.43;;;18.80;99.90;;;;;;5055373;28;20521;-62
2021/08/23 04:06:43;;;;;;;8.47;7.83;;;18.80;99.90;;;;;;5055724;28;20532;-63
2021/08/23 04:09:10;;;;;;;9.33;8.63;;;18.80;99.90;;;;;;5055409;28;20489;-62
2021/08/23 04:11:37;;;;;;;6.90;6.40;;;18.80;99.90;;;;;;5055907;28;20483;-62
2021/08/23 04:14:03;;;;;;;8.97;8.30;;;18.70;99.90;;;;;;5055724;28;20474;-63
2021/08/23 04:16:30;;;;;;;8.87;8.17;;;18.70;99.90;;;;;;5055130;28;20512;-62
2021/08/23 04:18:57;;;;;;;7.50;6.97;;;18.70;99.90;;;;;;5055694;28;20788;-62
2021/08/23 04:21:23;;;;;;;7.27;6.67;;;18.70;99.90;;;;;;5055120;28;20541;-62
2021/08/23 04:23:51;;;;;;;8.60;7.87;;;18.60;99.90;;;;;;5055423;28;20497;-63
2021/08/23 04:26:18;;;;;;;7.53;6.97;;;18.60;99.90;;;;;;5055117;28;20864;-63
2021/08/23 04:28:44;;;;;;;6.83;6.23;;;18.60;99.90;;;;;;5055343;28;20471;-60
2021/08/23 04:31:11;;;;;;;6.17;5.57;;;18.50;99.90;;;;;;5054933;28;20463;-61
2021/08/23 04:33:37;;;;;;;5.50;5.00;;;18.50;99.90;;;;;;5055384;28;20475;-61
2021/08/23 04:36:04;;;;;;;5.00;4.60;;;18.50;99.90;;;;;;5055334;28;20847;-62
2021/08/23 04:38:31;;;;;;;5.83;5.37;;;18.40;99.90;;;;;;5054716;28;20529;-62
2021/08/23 04:40:59;;;;;;;6.40;5.60;;;18.40;99.90;;;;;;5055419;28;20498;-61
2021/08/23 04:43:25;;;;;;;6.73;5.70;;;18.40;99.90;;;;;;5054489;28;20529;-61
2021/08/23 04:45:52;;;;;;;5.20;4.70;;;18.40;99.90;;;;;;5055074;28;20471;-62
2021/08/23 04:48:19;;;;;;;5.27;4.87;;;18.40;99.90;;;;;;5054573;28;20471;-61
2021/08/23 04:50:45;;;;;;;5.03;4.60;;;18.30;99.90;;;;;;5055076;28;20467;-62
2021/08/23 04:53:12;;;;;;;6.20;5.70;;;18.30;99.90;;;;;;5054773;28;20475;-61
2021/08/23 04:55:39;;;;;;;4.33;4.00;;;18.30;99.90;;;;;;5054965;28;20467;-62
2021/08/23 04:58:07;;;;;;;4.37;4.00;;;18.30;99.90;;;;;;5054717;28;20471;-61
2021/08/23 05:00:34;;;;;;;5.87;5.23;;;18.30;99.90;;;;;;5054684;28;20509;-62
2021/08/23 05:03:00;;;;;;;4.97;4.57;;;18.30;99.90;;;;;;5053941;28;20991;-62
2021/08/23 05:05:27;;;;;;;4.73;4.20;;;18.20;99.90;;;;;;5054327;28;20471;-62
2021/08/23 05:07:53;;;;;;;4.20;3.80;;;18.20;99.90;;;;;;5054979;28;20497;-63
2021/08/23 05:10:20;;;;;;;5.50;4.80;;;18.20;99.90;;;;;;5054248;28;20471;-61
2021/08/23 05:12:47;;;;;;;5.53;4.50;;;18.10;99.90;;;;;;5054804;28;20516;-61
2021/08/23 05:15:15;;;;;;;5.83;5.00;;;18.10;99.90;;;;;;5054206;28;20532;-61
2021/08/23 05:17:41;;;;;;;4.23;3.23;;;18.10;99.90;;;;;;5054591;28;20471;-61
2021/08/23 05:20:09;;;;;;;4.63;4.13;;;18.00;99.90;;;;;;5054369;28;20476;-62
2021/08/23 05:22:38;;;;;;;7.63;5.03;;;18.00;99.90;;;;;;5054083;28;21010;-61
2021/08/23 05:25:05;;;;;;;6.03;4.80;;;18.00;99.90;;;;;;5054370;28;20473;-61
2021/08/23 05:27:32;;;;;;;5.63;4.73;;;18.00;99.90;;;;;;5053841;28;20463;-61
2021/08/23 05:30:02;;;;;;;4.77;4.37;;;18.00;99.90;;;;;;5054179;28;20471;-62
2021/08/23 05:32:30;;;;;;;5.13;4.63;;;17.90;99.90;;;;;;5053658;28;20533;-62
2021/08/23 05:34:56;;;;;;;5.30;4.83;;;18.00;99.90;;;;;;5054226;28;20499;-62
2021/08/23 05:37:23;;;;;;;4.63;4.03;;;18.00;99.90;;;;;;5053830;28;20490;-62
2021/08/23 05:39:50;;;;;;;5.10;4.17;;;18.00;99.90;;;;;;5053982;28;20557;-62
2021/08/23 05:42:17;;;;;;;4.27;3.87;;;18.00;99.90;;;;;;5053701;28;20467;-62
2021/08/23 05:44:43;;;;;;;5.10;4.70;;;18.00;99.90;;;;;;5053774;28;20505;-63
2021/08/23 05:47:10;;;;;;;4.30;4.00;;;18.00;99.90;;;;;;5053870;28;20529;-62
2021/08/23 05:49:38;;;;;;;5.07;4.10;;;18.00;99.90;;;;;;5053477;28;20540;-62
2021/08/23 05:52:05;;;;;;;5.80;4.67;;;18.00;99.90;;;;;;5053833;28;20475;-62
2021/08/23 05:54:32;;;;;;;6.67;4.07;;;18.10;99.90;;;;;;5053238;28;20464;-62
2021/08/23 05:56:58;;;;;;;4.50;4.13;;;18.10;99.90;;;;;;5053678;28;21040;-62
2021/08/23 05:59:25;;;;;;;4.27;3.97;;;18.00;99.90;;;;;;5053287;28;20503;-62
2021/08/23 06:01:54;;;;;;;6.33;3.90;;;18.10;99.90;;;;;;5053611;28;20463;-63
2021/08/23 06:04:20;;;;;;;5.37;4.40;;;18.10;99.90;;;;;;5053153;28;20468;-62
2021/08/23 06:06:49;;;;;;;4.33;3.97;;;18.10;99.90;;;;;;5053580;28;20467;-62
2021/08/23 06:09:16;;;;;;;4.57;4.17;;;18.10;99.90;;;;;;5053000;28;20475;-62
2021/08/23 06:11:43;;;;;;;6.07;5.30;;;18.10;99.90;;;;;;5053815;28;20501;-63
2021/08/23 06:14:09;;;;;;;4.63;4.30;;;18.10;99.90;;;;;;5052320;28;20467;-63
2021/08/23 06:16:36;;;;;;;3.80;3.50;;;18.10;99.90;;;;;;5053153;28;20505;-62
2021/08/23 06:19:04;;;;;;;4.07;3.67;;;18.10;99.90;;;;;;5053371;28;20544;-61
2021/08/23 06:21:30;;;;;;;5.30;4.00;;;18.10;99.90;;;;;;5052859;28;20467;-62
2021/08/23 06:23:59;;;;;;;4.17;3.87;;;18.20;99.90;;;;;;5053336;28;20521;-62
2021/08/23 06:26:25;;;;;;;3.63;3.43;;;18.20;99.90;;;;;;5052863;28;21046;-62
2021/08/23 06:28:52;;;;;;;4.00;3.60;;;18.20;99.90;;;;;;5053104;28;20548;-62
2021/08/23 06:31:18;;;;;;;5.70;4.50;;;18.20;99.90;;;;;;5052786;28;20536;-62
2021/08/23 06:33:45;;;;;;;5.43;4.03;;;18.30;99.90;;;;;;5053100;28;20532;-63
2021/08/23 06:36:12;;;;;;;3.93;3.60;;;18.30;99.90;;;;;;5053036;28;21028;-63
2021/08/23 06:38:38;;;;;;;5.50;4.70;;;18.30;99.90;;;;;;5052695;28;20533;-61
2021/08/23 06:41:06;;;;;;;4.17;3.77;;;18.30;99.90;;;;;;5052922;28;20468;-62
2021/08/23 06:43:33;;;;;;;4.80;4.30;;;18.30;99.90;;;;;;5052425;28;20476;-62
2021/08/23 06:45:59;;;;;;;5.10;4.60;;;18.40;99.90;;;;;;5052873;28;20471;-60
2021/08/23 06:48:26;;;;;;;8.00;5.40;;;18.40;99.90;;;;;;5052538;28;20528;-61
2021/08/23 06:50:53;;;;;;;6.00;4.20;;;18.40;99.90;;;;;;5052786;28;20475;-61
2021/08/23 06:53:20;;;;;;;4.37;3.97;;;18.40;99.90;;;;;;5052406;28;20467;-61
2021/08/23 06:55:46;;;;;;;4.47;4.07;;;18.40;99.90;;;;;;5052726;28;20466;-61
2021/08/23 06:58:14;;;;;;;4.40;4.00;;;18.50;99.90;;;;;;5052618;28;20475;-61
2021/08/23 07:00:41;;;;;;;6.83;4.23;;;18.40;99.90;;;;;;5052255;28;20505;-62
2021/08/23 07:03:07;;;;;;;8.20;4.47;;;18.50;99.90;;;;;;5052621;28;20463;-62
2021/08/23 07:05:34;;;;;;;3.70;3.40;;;18.50;99.90;;;;;;5052325;28;21019;-62
2021/08/23 07:08:00;;;;;;;4.97;4.20;;;18.60;99.90;;;;;;5052696;28;20474;-62
2021/08/23 07:10:27;;;;;;;6.80;4.00;;;18.60;99.90;;;;;;5052168;28;20533;-63
2021/08/23 07:12:54;;;;;;;4.57;3.77;;;18.60;99.90;;;;;;5052725;28;20528;-61
2021/08/23 07:15:22;;;;;;;9.43;4.13;;;18.70;99.90;;;;;;5052042;28;20529;-62
2021/08/23 07:17:48;;;;;;;11.43;4.17;;;18.70;99.90;;;;;;5052379;28;20841;-62
2021/08/23 07:20:15;;;;;;;6.40;3.60;;;18.70;99.90;;;;;;5052615;28;20501;-62
2021/08/23 07:22:42;;;;;;;5.30;4.07;;;18.70;99.90;;;;;;5052181;28;20464;-61
2021/08/23 07:25:09;;;;;;;4.77;3.87;;;18.70;99.90;;;;;;5053973;28;20521;-63
2021/08/23 07:27:36;;;;;;;6.67;3.87;;;18.70;99.90;;;;;;5056287;28;20463;-62
2021/08/23 07:30:03;;;;;;;4.93;3.27;;;18.70;99.90;;;;;;5056362;28;20804;-62
2021/08/23 07:32:32;;;;;;;5.43;3.30;;;18.70;99.90;;;;;;5056123;28;20471;-62
2021/08/23 07:34:59;;;;;;;4.70;4.20;;;18.70;99.90;;;;;;5056557;28;20550;-62
2021/08/23 07:37:25;;;;;;;4.43;3.50;;;18.70;99.90;;;;;;5055970;28;20467;-62
2021/08/23 07:39:52;;;;;;;7.67;3.20;;;18.60;99.90;;;;;;5056455;28;20463;-62
2021/08/23 07:42:19;;;;;;;3.97;3.03;;;18.70;99.90;;;;;;5056190;28;20459;-61
2021/08/23 07:44:46;;;;;;;7.80;4.70;;;18.70;99.90;;;;;;5055652;28;20459;-61
2021/08/23 07:47:12;;;;;;;3.73;3.23;;;18.70;99.90;;;;;;5056212;28;21018;-62
2021/08/23 07:49:40;;;;;;;4.50;3.70;;;18.60;99.90;;;;;;5055699;28;20478;-62
2021/08/23 07:52:07;;;;;;;5.37;3.50;;;18.60;99.90;;;;;;5056033;28;20478;-63
2021/08/23 07:54:35;;;;;;;3.90;3.60;;;18.60;99.90;;;;;;5055523;28;20474;-62
2021/08/23 07:57:03;;;;;;;4.30;3.90;;;18.60;99.90;;;;;;5055988;28;21041;-62
2021/08/23 07:59:29;;;;;;;3.80;3.50;;;18.60;99.90;;;;;;5055362;28;20471;-62
2021/08/23 08:01:56;;;;;;;5.83;3.40;;;18.60;99.90;;;;;;5055926;28;20536;-60
2021/08/23 08:04:22;;;;;;;5.93;4.23;;;18.60;99.90;;;;;;5055979;28;20533;-61
2021/08/23 08:06:52;;;;;;;3.73;3.43;;;18.60;99.90;;;;;;5055661;28;20455;-62
2021/08/23 08:09:19;;;;;;;5.70;4.50;;;18.60;99.90;;;;;;5055580;28;20557;-62
2021/08/23 08:11:45;;;;;;;3.60;3.30;;;18.60;99.90;;;;;;5055238;28;20467;-62
2021/08/23 08:14:12;;;;;;;3.00;2.77;;;18.60;99.90;;;;;;5055466;28;20965;-62
2021/08/23 08:16:39;;;;;;;4.10;3.13;;;18.60;99.90;;;;;;5055310;28;20532;-62
2021/08/23 08:19:05;;;;;;;6.27;3.00;;;18.60;99.90;;;;;;5055558;28;20524;-62
2021/08/23 08:21:32;;;;;;;3.47;3.17;;;18.60;99.90;;;;;;5055236;28;20840;-62
2021/08/23 08:24:00;;;;;;;7.10;4.23;;;18.60;99.90;;;;;;5055429;28;20459;-61
2021/08/23 08:26:26;;;;;;;4.53;3.77;;;18.60;99.90;;;;;;5054795;28;20467;-61
2021/08/23 08:28:53;;;;;;;3.67;3.30;;;18.60;99.90;;;;;;5055433;28;20508;-61
2021/08/23 08:31:19;;;;;;;3.70;3.40;;;18.60;99.90;;;;;;5055338;28;20497;-62
2021/08/23 08:33:46;;;;;;;3.63;3.33;;;18.60;99.90;;;;;;5054880;28;20470;-62
2021/08/23 08:36:14;;;;;;;2.97;2.67;;;18.60;99.90;;;;;;5054346;28;20463;-62
2021/08/23 08:38:41;;;;;;;4.60;3.23;;;18.60;99.90;;;;;;5054758;28;20542;-62
2021/08/23 08:41:09;;;;;;;2.93;2.63;;;18.60;99.90;;;;;;5055130;28;20474;-62
2021/08/23 08:43:35;;;;;;;2.83;2.30;;;18.60;99.90;;;;;;5054618;28;20525;-61
2021/08/23 08:46:02;;;;;;;4.93;2.60;;;18.60;99.90;;;;;;5054952;28;20509;-62
2021/08/23 08:48:30;;;;;;;2.80;2.57;;;18.60;99.90;;;;;;5054565;28;20475;-62
2021/08/23 08:50:57;;;;;;;2.90;2.70;;;18.60;99.90;;;;;;5055288;28;20848;-62
2021/08/23 08:53:23;;;;;;;4.13;2.23;;;18.70;99.90;;;;;;5055047;28;20467;-62
2021/08/23 08:55:50;;;;;;;3.13;2.80;;;18.70;99.90;;;;;;5054657;28;20510;-62
2021/08/23 08:58:22;;;;;;;2.80;2.60;;;18.70;99.90;;;;;;5055021;28;20474;-62
2021/08/23 09:00:49;;;;;;;4.53;2.50;;;18.80;99.90;;;;;;5054452;28;20467;-62
2021/08/23 09:03:25;;;;;;;4.13;2.70;;;18.80;99.90;;;;;;5054906;28;20463;-61
2021/08/23 09:06:00;;;;;;;4.60;3.30;;;18.80;99.90;;;;;;5054352;28;20465;-62
2021/08/23 09:08:28;;;;;;;3.83;2.50;;;18.80;99.90;;;;;;5054698;28;20501;-61
2021/08/23 09:10:55;;;;;;;3.30;3.00;;;18.80;99.90;;;;;;5054459;28;20459;-61
2021/08/23 09:13:25;;;;;;;2.43;2.23;;;18.90;99.90;;;;;;5054701;28;20471;-61
2021/08/23 09:15:53;;;;;;;4.07;3.20;;;18.90;99.90;;;;;;5054168;28;20568;-61
2021/08/23 09:18:21;;;;;;;4.13;3.10;;;18.90;99.90;;;;;;5040719;28;20823;-61
2021/08/23 09:20:57;;;;;;;3.70;2.50;;;19.00;99.90;;;;;;5034234;28;20854;-61
2021/08/23 09:23:37;;;;;;;3.47;2.77;;;19.00;99.90;;;;;;5034571;28;20522;-60
2021/08/23 09:26:12;;;;;;;4.20;3.40;;;19.10;99.90;;;;;;5034282;28;20466;-61
2021/08/23 09:28:43;;;;;;;4.40;2.73;;;19.10;99.90;;;;;;5034281;28;20537;-61
2021/08/23 09:31:11;;;;;;;3.37;2.77;;;19.10;99.90;;;;;;5034281;28;20533;-61
2021/08/23 09:33:42;;;;;;;2.83;2.63;;;19.10;99.90;;;;;;5034420;28;21039;-61
2021/08/23 09:36:09;;;;;;;3.30;2.67;;;19.20;99.90;;;;;;5033894;28;20484;-61
2021/08/23 09:38:36;;;;;;;3.70;2.67;;;19.20;99.90;;;;;;5034205;28;20478;-62
2021/08/23 09:41:04;;;;;;;3.53;2.10;;;19.30;99.90;;;;;;5033822;28;20468;-62
2021/08/23 09:43:34;;;;;;;2.53;2.27;;;19.30;99.90;;;;;;5034034;28;20499;-62
2021/08/23 09:46:10;;;;;;;2.13;1.87;;;19.40;99.90;;;;;;5033355;28;20551;-62
2021/08/23 09:48:39;;;;;;;5.10;2.40;;;19.50;99.90;;;;;;5033807;28;20502;-61
2021/08/23 09:51:06;;;;;;;4.83;3.20;;;19.50;99.90;;;;;;5033711;28;20471;-62
2021/08/23 09:53:33;;;;;;;2.70;2.30;;;19.60;99.90;;;;;;5034038;28;20467;-62
2021/08/23 09:56:00;;;;;;;3.20;2.07;;;19.60;99.90;;;;;;5033559;28;20855;-60
2021/08/23 09:58:26;;;;;;;3.30;2.50;;;19.60;99.90;;;;;;5033757;28;20509;-61
2021/08/23 10:00:55;;;;;;;2.73;2.20;;;19.60;99.90;;;;;;5033385;28;20464;-62
2021/08/23 10:03:24;;;;;;;3.10;2.80;;;19.70;99.90;;;;;;5033824;28;20506;-62
2021/08/23 10:05:53;;;;;;;4.67;2.97;;;19.60;99.90;;;;;;5041480;28;21022;-62
2021/08/23 10:08:23;;;;;;;3.87;2.70;;;19.70;99.90;;;;;;5053461;28;20459;-62
2021/08/23 10:10:51;;;;;;;5.07;3.00;;;19.70;99.90;;;;;;5053169;28;20459;-62
2021/08/23 10:13:18;;;;;;;9.40;4.00;;;19.70;99.90;;;;;;5053340;28;20778;-62
2021/08/23 10:15:44;;;;;;;7.13;2.63;;;19.70;99.90;;;;;;5041317;28;20464;-62
2021/08/23 10:18:11;;;;;;;8.70;2.67;;;19.70;99.90;;;;;;5045752;28;20463;-62
2021/08/23 10:20:39;;;;;;;4.70;2.30;;;19.70;99.90;;;;;;5052615;28;20468;-62
2021/08/23 10:23:07;;;;;;;5.03;3.40;;;19.70;99.90;;;;;;5051874;28;20479;-62
2021/08/23 10:25:35;;;;;;;5.07;2.87;;;19.70;99.90;;;;;;5053330;28;20475;-62
2021/08/23 10:28:06;;;;;;;3.17;2.87;;;19.70;99.90;;;;;;5052725;28;20467;-61
2021/08/23 10:30:33;;;;;;;4.20;2.40;;;19.80;99.90;;;;;;5053123;28;20473;-61
2021/08/23 10:33:13;;;;;;;2.17;1.93;;;19.80;99.90;;;;;;5052813;28;20526;-61
2021/08/23 10:35:49;;;;;;;3.73;2.37;;;19.80;99.90;;;;;;5053228;28;20475;-61
2021/08/23 10:38:18;;;;;;;2.50;1.90;;;19.80;99.90;;;;;;5053009;28;20941;-62
2021/08/23 10:40:45;;;;;;;2.60;1.77;;;19.90;99.90;;;;;;5053194;28;20977;-62
2021/08/23 10:43:16;;;;;;;4.23;2.20;;;19.90;99.90;;;;;;5052545;28;20435;-62
2021/08/23 10:45:43;;;;;;;3.57;2.10;;;19.90;99.90;;;;;;5052790;28;20847;-62
2021/08/23 10:48:17;;;;;;;2.73;1.90;;;19.90;99.90;;;;;;5052445;28;20779;-61
2021/08/23 10:50:44;;;;;;;4.17;2.63;;;19.90;99.90;;;;;;5052970;28;20474;-62
2021/08/23 10:53:13;;;;;;;2.80;2.20;;;19.90;99.90;;;;;;5052554;28;20532;-62
2021/08/23 10:55:41;;;;;;;2.33;2.13;;;19.90;99.90;;;;;;5052902;28;20517;-62
2021/08/23 10:58:09;;;;;;;2.30;2.10;;;19.90;99.90;;;;;;5052166;28;20471;-61
2021/08/23 11:00:37;;;;;;;2.10;1.80;;;19.90;99.90;;;;;;5052255;28;20463;-61
2021/08/23 11:03:04;;;;;;;3.10;1.90;;;19.90;99.90;;;;;;5052221;28;20463;-61
2021/08/23 11:05:33;;;;;;;2.37;2.17;;;19.90;99.90;;;;;;5052690;28;20467;-61
2021/08/23 11:08:03;;;;;;;4.23;2.60;;;19.90;99.90;;;;;;5052310;28;20467;-62
2021/08/23 11:10:33;;;;;;;2.27;2.07;;;20.00;99.90;;;;;;5052757;28;20467;-61
2021/08/23 11:13:12;;;;;;;3.47;3.00;;;20.00;99.90;;;;;;5052333;28;20495;-61
2021/08/23 11:15:39;;;;;;;3.20;2.57;;;20.00;99.90;;;;;;5052659;28;20863;-61
2021/08/23 11:18:09;;;;;;;4.83;4.30;;;20.00;99.90;;;;;;5052280;28;20509;-62
2021/08/23 11:20:37;;;;;;;5.57;4.10;;;20.00;99.90;;;;;;5052622;28;20536;-61
2021/08/23 11:23:06;;;;;;;4.47;3.27;;;20.10;99.90;;;;;;5052142;28;20542;-61
2021/08/23 11:25:36;;;;;;;3.43;2.80;;;20.10;99.90;;;;;;5052698;28;20512;-61
2021/08/23 11:28:06;;;;;;;4.20;1.90;;;20.10;99.90;;;;;;5052248;28;20475;-61
2021/08/23 11:30:34;;;;;;;3.20;2.33;;;20.20;99.90;;;;;;5052522;28;20517;-61
2021/08/23 11:33:01;;;;;;;3.07;2.77;;;20.20;99.90;;;;;;5052093;28;20463;-62
2021/08/23 11:35:27;;;;;;;3.40;3.07;;;20.20;99.90;;;;;;5052491;28;20782;-62
2021/08/23 11:38:00;;;;;;;3.67;3.30;;;20.30;99.90;;;;;;5052357;28;20525;-62
2021/08/23 11:40:27;;;;;;;5.13;3.17;;;20.30;99.90;;;;;;5051984;28;20459;-62
2021/08/23 11:42:56;;;;;;;7.60;3.43;;;20.40;99.90;;;;;;5052352;28;21007;-62
2021/08/23 11:45:25;;;;;;;7.17;2.80;;;20.50;99.80;;;;;;5051591;28;20460;-62
2021/08/23 11:47:52;;;;;;;2.77;2.47;;;20.50;99.30;;;;;;5052461;28;20520;-61
2021/08/23 11:50:20;;;;;;;5.90;3.27;;;20.60;99.20;;;;;;5051901;28;20471;-62
2021/08/23 11:52:47;;;;;;;4.13;2.67;;;20.60;99.10;;;;;;5052005;28;20474;-61
2021/08/23 11:55:25;;;;;;;6.07;3.37;;;20.70;99.10;;;;;;5052007;28;20471;-61
2021/08/23 11:58:01;;;;;;;4.13;2.60;;;20.70;98.90;;;;;;5052153;28;20463;-62
2021/08/23 12:00:28;;;;;;;3.60;2.43;;;20.70;98.80;;;;;;5050257;28;20471;-61
2021/08/23 12:03:07;;;;;;;4.77;3.20;;;20.80;98.40;;;;;;5052226;28;20869;-61
2021/08/23 12:05:36;;;;;;;4.50;2.67;;;20.80;98.50;;;;;;5051800;28;21277;-61
2021/08/23 12:08:03;;;;;;;5.60;3.17;;;20.90;98.40;;;;;;5051568;28;20532;-62
2021/08/23 12:10:31;;;;;;;4.00;2.77;;;20.90;97.80;;;;;;5041447;28;20549;-61
2021/08/23 12:13:14;;;;;;;2.67;2.47;;;21.00;97.70;;;;;;5036004;28;20526;-61
2021/08/23 12:15:56;;;;;;;3.57;2.80;;;21.00;97.70;;;;;;5035663;28;20525;-62
2021/08/23 12:18:31;;;;;;;4.80;2.40;;;21.00;97.90;;;;;;5035320;28;20549;-60
2021/08/23 12:21:06;;;;;;;6.77;2.40;;;21.00;98.00;;;;;;5035666;28;20840;-61
2021/08/23 12:24:04;;;;;;;3.00;2.43;;;21.10;98.20;;;;;;5035427;28;20463;-62
2021/08/23 12:26:33;;;;;;;5.03;2.97;;;21.10;97.50;;;;;;4974422;28;20522;-62
2021/08/23 12:29:04;;;;;;;2.87;2.57;;;21.10;97.50;;;;;;5022322;28;20978;-61
2021/08/23 12:31:32;;;;;;;5.90;2.57;;;21.10;97.40;;;;;;5034967;28;20891;-61
2021/08/23 12:33:58;;;;;;;3.37;2.80;;;21.20;97.50;;;;;;5047405;28;20459;-61
2021/08/23 12:36:25;;;;;;;2.90;2.60;;;21.10;97.40;;;;;;5053786;28;20536;-61
2021/08/23 12:38:52;;;;;;;7.20;3.03;;;21.20;97.20;;;;;;5055451;28;20525;-61
2021/08/23 12:41:18;;;;;;;4.73;3.13;;;21.20;97.00;;;;;;5054796;28;20997;-62
2021/08/23 12:43:45;;;;;;;3.77;2.33;;;21.30;97.30;;;;;;5054930;28;20532;-62
2021/08/23 12:46:13;;;;;;;5.13;2.60;;;21.30;97.20;;;;;;5055183;28;20463;-61